createdAt,value
2023-06-28T04:03:20.369Z,99998.50
2023-06-28T04:07:26.200Z,99998.66
2023-06-28T04:11:29.148Z,99994.94
2023-06-28T04:15:32.601Z,99997.13
2023-06-28T04:19:36.867Z,99996.72
2023-06-28T04:23:40.308Z,99991.97
2023-06-28T04:27:42.823Z,99999.66
2023-06-28T04:31:45.428Z,100001.38
2023-06-28T04:35:49.334Z,99993.69
2023-06-28T04:39:51.850Z,100002.84
2023-06-28T04:43:56.599Z,99997.22
2023-06-28T04:47:59.201Z,100000.72
2023-06-28T04:52:03.120Z,100006.75
2023-06-28T04:56:06.692Z,100008.31
2023-06-28T05:00:12.680Z,100005.16
2023-06-28T05:04:15.215Z,100002.84
2023-06-28T05:08:19.125Z,100012.38
2023-06-28T05:12:21.683Z,100004.41
2023-06-28T05:16:24.276Z,100001.63
2023-06-28T05:20:27.015Z,100004.38
2023-06-28T05:24:30.960Z,100010.06
2023-06-28T05:28:33.538Z,100007.22
2023-06-28T05:32:36.182Z,99996.19
2023-06-28T05:36:39.133Z,100003.31
2023-06-28T05:40:43.586Z,99999.31
2023-06-28T05:44:46.840Z,100001.38
2023-06-28T05:48:52.277Z,99998.63
2023-06-28T05:52:54.905Z,100000.53
2023-06-28T05:56:59.349Z,99993.25
2023-06-28T06:01:02.366Z,100000.69
2023-06-28T06:05:06.388Z,99997.91
2023-06-28T06:09:09.070Z,99997.34
2023-06-28T06:13:13.290Z,100006.97
2023-06-28T06:17:15.796Z,100001.56
2023-06-28T06:21:18.367Z,100006.00
2023-06-28T06:25:20.915Z,99998.50
2023-06-28T06:29:24.790Z,99996.31
2023-06-28T06:33:27.866Z,100001.34
2023-06-28T06:37:30.559Z,100005.09
2023-06-28T06:41:33.118Z,99998.41
2023-06-28T06:45:36.978Z,100004.22
2023-06-28T06:49:39.563Z,99997.53
2023-06-28T06:53:42.181Z,99996.50
2023-06-28T06:57:44.805Z,100005.31
2023-06-28T07:01:49.356Z,100012.75
2023-06-28T07:05:52.266Z,100008.22
2023-06-28T07:09:54.970Z,100005.88
2023-06-28T07:13:57.573Z,100007.25
2023-06-28T07:18:01.535Z,100010.97
2023-06-28T07:22:04.821Z,99998.34
2023-06-28T07:26:07.276Z,100010.63
2023-06-28T07:30:10.508Z,100008.03
2023-06-28T07:34:15.860Z,99998.13
2023-06-28T07:38:19.864Z,100004.53
2023-06-28T07:42:22.885Z,100003.66
2023-06-28T07:46:25.578Z,100004.34
2023-06-28T07:50:29.492Z,100001.28
2023-06-28T07:54:34.304Z,100006.22
2023-06-28T07:58:37.815Z,100009.06
2023-06-28T08:02:40.415Z,100007.75
2023-06-28T08:06:44.392Z,100004.53
2023-06-28T08:10:46.960Z,100012.84
2023-06-28T08:14:49.514Z,100011.66
2023-06-28T08:18:52.017Z,100003.50
2023-06-28T08:22:55.919Z,100006.63
2023-06-28T08:26:58.485Z,99998.72
2023-06-28T08:31:01.362Z,99996.31
2023-06-28T08:35:05.276Z,100003.47
2023-06-28T08:39:09.192Z,99996.31
2023-06-28T08:43:15.298Z,100000.22
2023-06-28T08:47:18.021Z,99994.81
2023-06-28T08:51:21.685Z,99993.25
2023-06-28T08:55:25.773Z,99987.66
2023-06-28T08:59:28.521Z,99991.06
2023-06-28T09:03:32.734Z,99984.16
2023-06-28T09:07:36.992Z,99994.47
2023-06-28T09:11:41.025Z,99986.34
2023-06-28T09:15:43.757Z,99982.94
2023-06-28T09:19:46.569Z,99982.63
2023-06-28T09:23:50.985Z,99999.97
2023-06-28T09:27:56.689Z,99981.88
2023-06-28T09:32:21.027Z,99989.34
2023-06-28T09:36:24.675Z,99992.44
2023-06-28T09:40:27.310Z,99983.88
2023-06-28T09:44:32.337Z,99979.53
2023-06-28T09:48:38.264Z,99980.63
2023-06-28T09:52:44.023Z,99974.84
2023-06-28T09:56:46.737Z,99980.06
2023-06-28T10:00:51.676Z,99980.59
2023-06-28T10:04:56.906Z,99967.13
2023-06-28T10:09:00.775Z,99971.22
2023-06-28T10:13:04.868Z,99977.28
2023-06-28T10:17:10.141Z,99981.72
2023-06-28T10:21:12.867Z,99970.94
2023-06-28T10:25:15.830Z,99964.34
2023-06-28T10:29:18.572Z,99957.97
2023-06-28T10:33:24.463Z,99965.41
2023-06-28T10:37:27.489Z,99957.16
2023-06-28T10:41:29.939Z,99961.28
2023-06-28T10:45:36.316Z,99940.09
2023-06-28T10:49:42.080Z,99959.06
2023-06-28T10:53:54.224Z,99954.94
2023-06-28T10:58:07.406Z,99945.19
2023-06-28T11:02:09.978Z,99942.94
2023-06-28T11:06:15.179Z,99942.53
2023-06-28T11:10:18.735Z,99947.09
2023-06-28T11:14:26.351Z,99949.84
2023-06-28T11:18:28.997Z,99941.97
2023-06-28T11:22:51.666Z,99933.69
2023-06-28T11:26:54.629Z,99940.91
2023-06-28T11:30:57.434Z,99932.88
2023-06-28T11:35:02.662Z,99931.09
2023-06-28T11:39:08.162Z,99937.88
2023-06-28T11:43:11.469Z,99935.38
2023-06-28T11:47:14.759Z,99935.94
2023-06-28T11:51:18.038Z,99937.56
2023-06-28T11:55:22.251Z,99930.50
2023-06-28T11:59:26.100Z,99937.50
2023-06-28T12:03:33.510Z,99934.31
2023-06-28T12:07:36.968Z,99937.34
2023-06-28T12:11:50.925Z,99942.88
2023-06-28T12:15:55.199Z,99932.03
2023-06-28T12:19:57.728Z,99939.47
2023-06-28T12:24:17.185Z,99941.03
2023-06-28T12:28:21.110Z,99923.13
2023-06-28T12:32:26.122Z,99930.81
2023-06-28T12:36:28.676Z,99921.25
2023-06-28T12:40:33.463Z,99923.72
2023-06-28T12:44:51.327Z,99917.94
2023-06-28T12:48:55.522Z,99914.28
2023-06-28T12:52:58.104Z,99912.41
2023-06-28T12:57:01.356Z,99910.44
2023-06-28T13:01:05.447Z,99909.16
2023-06-28T13:05:08.529Z,99906.25
2023-06-28T13:09:11.659Z,99913.19
2023-06-28T13:13:14.212Z,99909.34
2023-06-28T13:17:18.117Z,99919.59
2023-06-28T13:21:20.749Z,99902.28
2023-06-28T13:25:23.170Z,99918.38
2023-06-28T13:29:27.981Z,99914.63
2023-06-28T13:33:31.897Z,99914.06
2023-06-28T13:37:34.649Z,99904.41
2023-06-28T13:41:37.249Z,99911.91
2023-06-28T13:45:40.044Z,99907.22
2023-06-28T13:49:44.117Z,99905.59
2023-06-28T13:53:46.722Z,99904.78
2023-06-28T13:57:49.362Z,99905.03
2023-06-28T14:01:52.743Z,99900.63
2023-06-28T14:05:56.699Z,99903.59
2023-06-28T14:09:59.248Z,99902.31
2023-06-28T14:14:01.807Z,99908.00
2023-06-28T14:18:04.506Z,99893.69
2023-06-28T14:22:08.325Z,99885.22
2023-06-28T14:26:10.894Z,99884.66
2023-06-28T14:30:14.286Z,99875.34
2023-06-28T14:34:16.875Z,99879.00
2023-06-28T14:38:20.750Z,99880.50
2023-06-28T14:42:23.297Z,99883.09
2023-06-28T14:46:25.861Z,99886.22
2023-06-28T14:50:28.423Z,99882.31
2023-06-28T14:54:33.027Z,99883.97
2023-06-28T14:58:35.590Z,99881.94
2023-06-28T15:02:38.263Z,99877.16
2023-06-28T15:06:41.897Z,99886.72
2023-06-28T15:10:45.812Z,99878.47
2023-06-28T15:14:48.322Z,99874.38
2023-06-28T15:18:50.878Z,99876.00
2023-06-28T15:22:54.876Z,99876.44
2023-06-28T15:26:59.853Z,99878.81
2023-06-28T15:31:02.466Z,99878.72
2023-06-28T15:35:05.375Z,99870.22
2023-06-28T15:39:07.996Z,99874.78
2023-06-28T15:43:11.739Z,99867.63
2023-06-28T15:47:14.274Z,99869.59
2023-06-28T15:51:16.832Z,99863.31
2023-06-28T15:55:23.919Z,99869.06
2023-06-28T15:59:27.770Z,99872.47
2023-06-28T16:03:30.423Z,99871.53
2023-06-28T16:07:33.111Z,99867.09
2023-06-28T16:11:35.950Z,99872.44
2023-06-28T16:15:39.790Z,99873.81
2023-06-28T16:19:42.356Z,99866.34
2023-06-28T16:23:45.207Z,99868.66
2023-06-28T16:27:50.715Z,99867.03
2023-06-28T16:31:54.600Z,99864.47
2023-06-28T16:35:57.104Z,99870.91
2023-06-28T16:39:59.801Z,99862.19
2023-06-28T16:44:02.333Z,99864.47
2023-06-28T16:48:06.927Z,99855.44
2023-06-28T16:52:09.658Z,99860.53
2023-06-28T16:56:12.292Z,99851.13
2023-06-28T17:00:15.793Z,99867.91
2023-06-28T17:04:19.669Z,99857.44
2023-06-28T17:08:23.255Z,99855.03
2023-06-28T17:12:25.866Z,99866.44
2023-06-28T17:16:28.425Z,99861.75
2023-06-28T17:20:32.727Z,99859.13
2023-06-28T17:24:35.245Z,99862.66
2023-06-28T17:28:40.817Z,99863.13
2023-06-28T17:32:43.431Z,99852.28
2023-06-28T17:36:47.943Z,99858.09
2023-06-28T17:40:50.546Z,99865.09
2023-06-28T17:44:53.089Z,99863.81
2023-06-28T17:48:55.704Z,99863.78
2023-06-28T17:52:59.590Z,99854.25
2023-06-28T17:57:02.179Z,99855.31
2023-06-28T18:01:05.086Z,99871.19
2023-06-28T18:05:09.420Z,99876.34
2023-06-28T18:09:13.323Z,99870.88
2023-06-28T18:13:15.885Z,99869.78
2023-06-28T18:17:18.475Z,99865.41
2023-06-28T18:21:21.065Z,99870.81
2023-06-28T18:25:24.988Z,99871.38
2023-06-28T18:29:27.858Z,99871.44
2023-06-28T18:33:30.449Z,99868.72
2023-06-28T18:37:33.036Z,99869.44
2023-06-28T18:41:40.492Z,99876.00
2023-06-28T18:45:44.075Z,99870.06
2023-06-28T18:49:47.025Z,99870.38
2023-06-28T18:53:49.604Z,99872.25
2023-06-28T18:57:56.260Z,99871.94
2023-06-28T19:01:58.805Z,99875.78
2023-06-28T19:06:01.376Z,99875.53
2023-06-28T19:10:04.729Z,99868.94
2023-06-28T19:14:08.686Z,99871.09
2023-06-28T19:18:11.270Z,99878.78
2023-06-28T19:22:13.854Z,99883.81
2023-06-28T19:26:16.414Z,99895.22
2023-06-28T19:30:20.329Z,99884.91
2023-06-28T19:34:22.883Z,99891.59
2023-06-28T19:38:25.487Z,99896.88
2023-06-28T19:42:28.148Z,99895.91
2023-06-28T19:46:32.051Z,99897.84
2023-06-28T19:50:34.650Z,99898.69
2023-06-28T19:54:37.349Z,99908.00
2023-06-28T19:58:40.392Z,99909.09
2023-06-28T20:02:45.226Z,99912.94
2023-06-28T20:06:47.876Z,99901.91
2023-06-28T20:10:50.552Z,99904.25
2023-06-28T20:14:53.108Z,99905.84
2023-06-28T20:18:57.290Z,99905.84
2023-06-28T20:22:59.845Z,99911.25
2023-06-28T20:27:02.540Z,99910.22
2023-06-28T20:31:05.132Z,99906.88
2023-06-28T20:35:10.619Z,99909.06
2023-06-28T20:39:13.218Z,99918.38
2023-06-28T20:43:18.967Z,99918.38
2023-06-28T20:47:22.781Z,99921.28
2023-06-28T20:51:26.905Z,99916.97
2023-06-28T20:55:29.472Z,99927.84
2023-06-28T20:59:32.058Z,99931.16
